Stations météo

réclame
Mon MeteoGroup
Martina Franca, Italie (16318): Température de l'air & dewpoint: 17.10.2018 22:00:00 - 23.10.2018 22:00:00 (CEST)Martina Franca, Italie (16318): Vitesse du vent: 17.10.2018 22:00:00 - 23.10.2018 22:00:00 (CEST)Martina Franca, Italie (16318): Direction du vent: 17.10.2018 22:00:00 - 23.10.2018 22:00:00 (CEST)Martina Franca, Italie (16318): reduced air pressure: 17.10.2018 22:00:00 - 23.10.2018 22:00:00 (CEST)Martina Franca, Italie (16318): Quantités de précipitations: 17.10.2018 22:00:00 - 23.10.2018 22:00:00 (CEST)
Date & Time tt [°C] td [°C] ff [km/h] ff [knt] dd ppp [hPa] rr [mm]
23.10.2018 22:00:00 12,6 11,3 22 12 N 1016,7 -
23.10.2018 21:00:00 12,8 11,4 21 11 N 1016,5 -
23.10.2018 20:00:00 13,3 12,0 21 11 N 1016,7 0,0
23.10.2018 19:00:00 13,8 12,3 18 10 N 1016,4 -
23.10.2018 18:00:00 14,8 12,5 21 11 N 1015,5 -
23.10.2018 17:00:00 15,9 12,8 24 13 NNE 1014,8 -
23.10.2018 16:00:00 16,7 12,4 22 12 NE 1014,5 -
23.10.2018 15:00:00 17,2 12,8 24 13 NE 1014,5 -
23.10.2018 14:00:00 17,7 13,3 24 13 NE 1014,7 0,0
23.10.2018 13:00:00 17,2 13,4 26 14 NE 1015,6 -
23.10.2018 12:00:00 - - - - - - -
23.10.2018 11:00:00 16,7 15,7 21 11 NE 1015,6 -
23.10.2018 10:00:00 14,4 13,7 15 8 NE 1016,0 -
23.10.2018 09:00:00 14,0 13,8 16 9 NE 1015,5 -
23.10.2018 08:00:00 13,1 12,9 15 8 NE 1015,1 -
23.10.2018 07:00:00 13,1 12,8 22 12 ENE 1014,4 -
23.10.2018 06:00:00 13,2 13,0 18 10 ENE 1014,2 -
23.10.2018 05:00:00 13,2 13,0 18 10 ENE 1013,6 -
23.10.2018 04:00:00 13,2 13,0 21 11 ENE 1013,5 -
23.10.2018 03:00:00 13,4 13,2 18 10 ENE 1013,5 -
23.10.2018 02:00:00 13,3 13,1 21 11 ENE 1014,1 0,0
23.10.2018 01:00:00 13,0 12,8 24 13 ENE 1014,1 -
23.10.2018 00:00:00 12,8 12,6 18 10 E 1014,5 -
22.10.2018 23:00:00 12,8 12,6 28 15 ENE 1013,6 -
22.10.2018 22:00:00 12,8 12,6 21 11 ENE 1013,9 -
22.10.2018 21:00:00 12,4 12,2 24 13 ENE 1013,6 -
22.10.2018 20:00:00 12,5 12,3 24 13 ENE 1013,3 -
22.10.2018 19:00:00 12,7 12,5 16 9 E 1012,5 -
22.10.2018 18:00:00 12,8 12,6 16 9 E 1012,2 -
22.10.2018 17:00:00 12,8 12,6 15 8 E 1012,2 -
22.10.2018 16:00:00 13,0 12,8 13 7 E 1012,7 -
22.10.2018 15:00:00 13,1 12,9 11 6 ENE 1012,5 -
22.10.2018 14:00:00 13,4 13,0 11 6 E 1012,5 -
22.10.2018 13:00:00 13,0 12,7 15 8 E 1013,1 -
22.10.2018 12:00:00 12,8 12,3 16 9 E 1013,8 -
22.10.2018 11:00:00 12,9 12,3 9 5 NNW 1014,0 -
22.10.2018 10:00:00 12,8 12,2 4 2 SE 1014,1 -
22.10.2018 09:00:00 12,7 11,7 5 3 WSW 1014,7 -
22.10.2018 08:00:00 13,6 10,9 11 6 ENE 1013,7 -
22.10.2018 07:00:00 12,8 11,2 15 8 ENE 1013,5 -
22.10.2018 06:00:00 13,9 11,4 16 9 ENE 1014,0 -
22.10.2018 05:00:00 13,9 11,0 18 10 ENE 1014,0 -
22.10.2018 04:00:00 14,0 11,8 18 10 ENE 1014,4 -
22.10.2018 03:00:00 13,6 11,8 16 9 ENE 1015,3 -
22.10.2018 02:00:00 13,9 11,2 16 9 ENE 1015,9 0,0
22.10.2018 01:00:00 14,1 11,4 18 10 ENE 1016,3 -
22.10.2018 00:00:00 14,0 11,8 16 9 ENE 1016,8 -
21.10.2018 23:00:00 14,0 12,5 16 9 ENE 1016,8 -
21.10.2018 22:00:00 14,2 11,9 13 7 NNE 1016,9 -
21.10.2018 21:00:00 14,3 12,0 13 7 NNE 1016,9 -
21.10.2018 20:00:00 14,6 12,8 13 7 NNE 1016,8 0,0
21.10.2018 19:00:00 14,8 12,3 11 6 NNE 1016,9 -
21.10.2018 18:00:00 15,7 12,4 9 5 N 1016,5 -
21.10.2018 17:00:00 16,6 12,3 11 6 N 1016,4 -
21.10.2018 16:00:00 17,8 11,8 - - - 1015,8 -
21.10.2018 15:00:00 20,1 11,8 11 6 NNW 1016,0 -
21.10.2018 14:00:00 19,7 12,2 13 7 NNW 1016,6 0,0
21.10.2018 13:00:00 19,4 13,0 15 8 NW 1017,3 -
21.10.2018 12:00:00 18,8 14,6 15 8 NW 1018,0 -
21.10.2018 11:00:00 17,1 14,8 16 9 NNW 1018,5 -
21.10.2018 10:00:00 15,7 14,5 18 10 NNW 1019,1 -
21.10.2018 09:00:00 13,8 13,3 13 7 NNW 1019,1 -
21.10.2018 08:00:00 12,5 12,0 13 7 NNW 1019,1 0,0
21.10.2018 07:00:00 12,3 11,7 15 8 NNW 1019,1 -
21.10.2018 06:00:00 13,0 12,5 15 8 NNW 1019,3 -
21.10.2018 05:00:00 12,5 11,9 16 9 N 1019,2 -
21.10.2018 04:00:00 12,6 11,8 16 9 NNW 1019,5 -
21.10.2018 03:00:00 12,9 12,3 16 9 NNW 1020,1 -
21.10.2018 02:00:00 12,9 12,3 16 9 NNW 1020,5 0,0
21.10.2018 01:00:00 12,9 12,3 15 8 NNW 1021,2 -
21.10.2018 00:00:00 13,6 13,1 13 7 NNW 1021,0 -
20.10.2018 23:00:00 14,3 13,9 13 7 NNW 1021,4 -
20.10.2018 22:00:00 14,7 14,2 13 7 NNW 1021,3 -
20.10.2018 21:00:00 15,1 14,6 13 7 NNW 1020,9 -
20.10.2018 20:00:00 15,2 14,3 11 6 N 1020,7 0,0
20.10.2018 19:00:00 15,6 14,1 13 7 N 1020,3 -
20.10.2018 18:00:00 17,1 13,5 16 9 N 1019,7 -
20.10.2018 17:00:00 18,9 13,7 18 10 N 1019,5 -
20.10.2018 16:00:00 19,7 14,0 22 12 N 1019,6 -
20.10.2018 15:00:00 20,9 14,0 21 11 N 1019,5 -
20.10.2018 14:00:00 21,3 13,9 16 9 NNW 1019,7 0,0
20.10.2018 13:00:00 21,0 14,8 16 9 N 1019,9 -
20.10.2018 12:00:00 20,2 13,8 21 11 N 1020,0 -
20.10.2018 11:00:00 19,3 14,3 16 9 N 1020,1 -
20.10.2018 10:00:00 17,4 14,0 18 10 N 1020,3 -
20.10.2018 09:00:00 15,5 13,3 16 9 N 1020,3 -
20.10.2018 08:00:00 14,4 12,9 18 10 N 1020,0 0,0
20.10.2018 07:00:00 13,9 12,9 18 10 N 1020,0 -
20.10.2018 06:00:00 14,1 13,4 18 10 N 1019,9 -
20.10.2018 05:00:00 14,0 13,5 16 9 N 1019,6 -
20.10.2018 04:00:00 13,9 13,5 16 9 N 1019,5 -
20.10.2018 03:00:00 14,2 13,8 16 9 NNE 1019,6 -
20.10.2018 02:00:00 14,3 13,9 16 9 NNE 1019,7 0,0
20.10.2018 01:00:00 14,2 13,8 18 10 NNE 1019,8 -
20.10.2018 00:00:00 14,0 13,5 15 8 NNE 1019,6 -
19.10.2018 23:00:00 14,4 13,7 15 8 NNE 1019,4 -
19.10.2018 22:00:00 14,2 13,4 16 9 NNE 1019,0 -
19.10.2018 21:00:00 14,8 13,6 15 8 NNE 1018,5 -
19.10.2018 20:00:00 15,2 14,3 15 8 NNE 1018,5 0,0
19.10.2018 19:00:00 15,9 14,7 13 7 NNE 1017,9 -
19.10.2018 18:00:00 17,7 15,1 11 6 N 1017,3 -
19.10.2018 17:00:00 19,9 15,0 9 5 NNE 1017,0 -
19.10.2018 16:00:00 21,1 16,4 8 4 N 1016,7 -
19.10.2018 15:00:00 - - - - - - -
19.10.2018 14:00:00 21,3 16,6 9 5 NNE 1016,9 0,0
19.10.2018 13:00:00 20,3 16,5 8 4 NNE 1017,3 -
19.10.2018 12:00:00 21,0 17,7 5 3 N 1017,2 -
19.10.2018 11:00:00 18,7 17,7 13 7 N 1017,2 -
19.10.2018 10:00:00 16,6 16,5 18 10 NNE 1017,1 -
19.10.2018 09:00:00 14,8 14,6 16 9 NE 1017,2 -
19.10.2018 08:00:00 13,6 13,2 18 10 NE 1017,1 0,0
19.10.2018 07:00:00 13,0 12,2 13 7 NE 1017,2 -
19.10.2018 06:00:00 13,6 12,0 8 4 NE 1017,0 -
19.10.2018 05:00:00 13,8 11,7 2 1 ENE 1017,1 -
19.10.2018 04:00:00 14,1 12,5 13 7 NE 1016,8 -
19.10.2018 03:00:00 13,3 12,7 9 5 NE 1017,3 -
19.10.2018 02:00:00 13,8 13,3 4 2 ENE 1017,3 0,0
19.10.2018 01:00:00 15,0 14,6 8 4 NE 1016,9 -
19.10.2018 00:00:00 15,6 15,2 15 8 ENE 1016,3 -
18.10.2018 23:00:00 15,4 15,0 13 7 ENE 1016,7 -
18.10.2018 22:00:00 15,8 15,4 5 3 NE 1016,8 -
18.10.2018 21:00:00 15,5 15,0 8 4 ENE 1016,6 -
18.10.2018 20:00:00 15,9 15,2 9 5 ENE 1016,3 0,0
18.10.2018 19:00:00 17,0 15,6 9 5 ENE 1015,6 -
18.10.2018 18:00:00 19,6 16,4 2 1 N 1014,6 -
18.10.2018 17:00:00 22,5 17,8 5 3 SSW 1013,6 -
18.10.2018 16:00:00 23,0 16,7 4 2 ESE 1013,8 -
18.10.2018 15:00:00 23,6 18,2 5 3 SSW 1013,7 -
18.10.2018 14:00:00 23,3 17,4 8 4 SSW 1014,3 0,0
18.10.2018 13:00:00 22,9 16,4 5 3 S 1014,7 -
18.10.2018 12:00:00 21,3 15,3 4 2 SSE 1015,5 -
18.10.2018 11:00:00 20,7 16,0 5 3 S 1015,8 -
18.10.2018 10:00:00 18,1 15,1 9 5 ENE 1016,2 -
18.10.2018 09:00:00 15,5 14,5 13 7 NE 1016,5 -
18.10.2018 08:00:00 14,0 12,7 13 7 NE 1016,6 0,0
18.10.2018 07:00:00 13,7 12,2 16 9 NE 1016,4 -
18.10.2018 06:00:00 14,2 13,7 15 8 NE 1016,1 -
18.10.2018 05:00:00 14,3 13,9 9 5 ENE 1016,4 -
18.10.2018 04:00:00 14,2 13,8 5 3 ENE 1016,8 -
18.10.2018 03:00:00 14,9 14,5 9 5 ENE 1016,9 -
18.10.2018 02:00:00 14,9 14,5 8 4 ENE 1017,4 0,0
18.10.2018 01:00:00 14,7 14,3 5 3 ENE 1017,7 -
18.10.2018 00:00:00 14,3 13,8 4 2 ENE 1018,0 -
17.10.2018 23:00:00 15,0 14,5 5 3 ENE 1018,3 -
17.10.2018 22:00:00 15,6 15,1 5 3 ENE 1018,2 -

tt = Température de l'air
td = dewpoint
ff = Vitesse du vent
dd = Direction du vent
ppp = reduced air pressure
rr = Quantités de précipitations

stations d'obs. à proximité